Cedar Ridge, Missouri
Current Conditions -  °F | °C
As of 8:35 PM on Thursday 20 Nov 2014 (Local Time) from KH21 Reporting Station
Clear Clear  
Wind Chill: 32°   Ceiling: Unl
Heat Index: 32°   Visibility: 10mi
Dew Point: 21°   Wind: 3mph
Humidity: 64%   Direction: 50°NE
Pressure: 30.24"   Gusts: NA
Location:  37.5724°N, 92.9325°W
Report Text: KH21 210235Z AUTO 05003KT 10SM CLR 00/M06 A3024 RMK AO2
Loading
Personal Weather Stations






























Interactive Weather Map New forecast layout! Learn more

10-Day Weather Forecast

Advertisements
Track Severe Weather on mobile